Time;durP1;ratioP1;P1;durP2;ratioP2;P2;SDS_P1;SDS_P2;PMS_P1;PMS_P2;Temp;Humidity;BMP_temperature;BMP_pressure;BME280_temperature;BME280_humidity;BME280_pressure;Samples;Min_cycle;Max_cycle;Signal;HPM_P1;HPM_P2
2023/05/20 00:00:11;;;;;;;4.90;3.63;;;;;;;10.75;100.00;95884.38;1029811;28;20305;-72
2023/05/20 00:00:45;;;;;;;3.90;3.20;;;;;;;10.75;100.00;95887.00;1022025;28;20023;-72
2023/05/20 00:01:15;;;;;;;4.28;3.65;;;;;;;10.73;100.00;95884.63;1017373;29;20275;-73
2023/05/20 00:01:46;;;;;;;5.63;3.63;;;;;;;10.74;100.00;95880.97;1032165;28;20296;-72
2023/05/20 00:02:16;;;;;;;5.38;3.58;;;;;;;10.73;100.00;95882.00;1022008;28;20496;-72
2023/05/20 00:02:47;;;;;;;3.92;3.33;;;;;;;10.73;100.00;95878.59;1021872;29;20541;-73
2023/05/20 00:03:18;;;;;;;4.57;3.15;;;;;;;10.69;100.00;95875.69;1029764;28;20030;-73
2023/05/20 00:03:49;;;;;;;5.28;3.72;;;;;;;10.72;100.00;95884.88;1029687;28;20068;-73
2023/05/20 00:04:20;;;;;;;6.60;3.20;;;;;;;10.67;100.00;95880.41;1029781;28;20262;-72
2023/05/20 00:04:50;;;;;;;4.05;3.55;;;;;;;10.69;100.00;95888.81;1017772;29;20298;-72
2023/05/20 00:05:21;;;;;;;7.18;3.63;;;;;;;10.69;100.00;95886.19;1020508;28;20078;-72
2023/05/20 00:05:51;;;;;;;3.80;3.13;;;;;;;10.67;100.00;95882.25;1037923;28;20582;-72
2023/05/20 00:06:22;;;;;;;4.90;3.40;;;;;;;10.67;100.00;95874.38;1017988;28;20038;-72
2023/05/20 00:06:53;;;;;;;4.00;3.20;;;;;;;10.66;100.00;95878.81;1036201;28;20037;-72
2023/05/20 00:07:24;;;;;;;3.88;3.17;;;;;;;10.66;100.00;95876.19;1029842;28;20037;-72
2023/05/20 00:07:54;;;;;;;4.57;3.47;;;;;;;10.61;100.00;95871.75;1025938;28;20358;-72
2023/05/20 00:08:25;;;;;;;5.15;3.55;;;;;;;10.67;100.00;95879.63;1022214;28;20082;-72
2023/05/20 00:08:55;;;;;;;4.53;3.60;;;;;;;10.66;100.00;95872.78;1029994;28;20479;-73
2023/05/20 00:09:26;;;;;;;4.90;3.70;;;;;;;10.67;100.00;95877.00;1017962;29;20066;-72
2023/05/20 00:09:57;;;;;;;4.97;3.45;;;;;;;10.67;100.00;95879.63;1025857;28;20086;-72
2023/05/20 00:10:27;;;;;;;3.45;3.10;;;;;;;10.68;100.00;95881.22;1022589;28;20542;-73
2023/05/20 00:10:58;;;;;;;4.57;2.88;;;;;;;10.71;100.00;95878.06;1021948;29;20468;-72
2023/05/20 00:11:28;;;;;;;3.65;3.13;;;;;;;10.70;100.00;95879.91;1017482;29;20028;-72
2023/05/20 00:11:59;;;;;;;3.58;3.28;;;;;;;10.71;100.00;95872.81;1027526;28;20030;-73
2023/05/20 00:12:29;;;;;;;7.38;3.38;;;;;;;10.71;100.00;95875.44;1029931;28;20121;-72
2023/05/20 00:13:00;;;;;;;3.85;3.10;;;;;;;10.71;100.00;95875.44;1025943;28;20090;-71
2023/05/20 00:13:31;;;;;;;4.85;3.50;;;;;;;10.72;100.00;95879.63;1022350;28;20098;-72
2023/05/20 00:14:01;;;;;;;6.38;3.60;;;;;;;10.72;100.00;95872.53;1025835;28;20093;-73
2023/05/20 00:14:32;;;;;;;4.50;3.55;;;;;;;10.76;100.00;95878.06;1018054;29;20043;-72
2023/05/20 00:15:02;;;;;;;5.43;3.10;;;;;;;10.73;100.00;95878.59;1034006;28;20447;-72
2023/05/20 00:15:34;;;;;;;4.95;3.40;;;;;;;10.71;100.00;95867.56;1030710;28;20715;-72
2023/05/20 00:16:05;;;;;;;4.47;3.55;;;;;;;10.70;100.00;95868.63;1022020;29;20059;-72
2023/05/20 00:16:35;;;;;;;3.97;3.50;;;;;;;10.74;100.00;95873.09;1025809;28;20353;-72
2023/05/20 00:17:06;;;;;;;4.20;3.25;;;;;;;10.74;100.00;95872.31;1031807;28;20034;-72
2023/05/20 00:17:37;;;;;;;4.00;3.15;;;;;;;10.75;100.00;95871.25;1023994;28;20461;-72
2023/05/20 00:18:07;;;;;;;3.55;3.13;;;;;;;10.76;100.00;95878.06;1025816;28;20035;-72
2023/05/20 00:18:38;;;;;;;3.97;3.53;;;;;;;10.77;100.00;95869.16;1025896;28;20074;-72
2023/05/20 00:19:08;;;;;;;4.05;3.60;;;;;;;10.74;100.00;95870.47;1026665;28;20137;-72
2023/05/20 00:19:39;;;;;;;4.10;3.20;;;;;;;10.77;100.00;95872.56;1025947;28;20053;-72
2023/05/20 00:20:10;;;;;;;3.80;3.42;;;;;;;10.78;100.00;95868.09;1017878;29;20032;-72
2023/05/20 00:20:40;;;;;;;4.82;3.55;;;;;;;10.77;100.00;95875.19;1025850;28;20035;-72
2023/05/20 00:21:11;;;;;;;5.32;2.90;;;;;;;10.77;100.00;95866.53;1024665;28;20054;-71
2023/05/20 00:21:41;;;;;;;4.13;3.58;;;;;;;10.76;100.00;95873.59;1021906;29;20121;-72
2023/05/20 00:22:12;;;;;;;3.92;3.10;;;;;;;10.74;100.00;95869.69;1025848;28;20027;-72
2023/05/20 00:22:42;;;;;;;5.90;3.50;;;;;;;10.74;100.00;95874.94;1027727;28;20023;-72
2023/05/20 00:23:13;;;;;;;3.63;2.95;;;;;;;10.73;100.00;95868.09;1021949;29;20318;-72
2023/05/20 00:23:43;;;;;;;4.78;3.55;;;;;;;10.73;100.00;95868.91;1014023;28;20470;-72
2023/05/20 00:24:14;;;;;;;4.47;3.88;;;;;;;10.73;100.00;95866.28;1024929;28;20026;-72
2023/05/20 00:24:44;;;;;;;4.95;3.33;;;;;;;10.73;100.00;95865.47;1017897;28;20053;-71
2023/05/20 00:25:15;;;;;;;4.13;3.17;;;;;;;10.73;100.00;95863.66;1025869;28;20400;-72
2023/05/20 00:25:45;;;;;;;7.95;4.25;;;;;;;10.72;100.00;95862.03;1017981;29;20564;-72
2023/05/20 00:26:16;;;;;;;7.25;3.58;;;;;;;10.71;100.00;95864.94;1025093;28;20022;-73
2023/05/20 00:26:46;;;;;;;4.65;3.50;;;;;;;10.73;100.00;95873.34;1017867;29;20142;-72
2023/05/20 00:27:17;;;;;;;5.18;3.72;;;;;;;10.70;100.00;95863.38;1025877;28;20471;-72
2023/05/20 00:27:47;;;;;;;4.38;3.20;;;;;;;10.68;100.00;95866.25;1027815;28;20555;-72
2023/05/20 00:28:18;;;;;;;4.30;3.17;;;;;;;10.69;100.00;95865.19;1025847;28;20031;-72
2023/05/20 00:28:49;;;;;;;4.20;3.50;;;;;;;10.67;100.00;95858.66;1021820;28;20497;-72
2023/05/20 00:29:20;;;;;;;5.07;3.47;;;;;;;10.68;100.00;95863.63;1021748;28;20219;-73
2023/05/20 00:29:51;;;;;;;6.28;3.75;;;;;;;10.68;100.00;95863.63;1025995;28;20027;-72
2023/05/20 00:30:21;;;;;;;5.95;3.60;;;;;;;10.70;100.00;95863.38;1017872;29;20329;-71
2023/05/20 00:30:52;;;;;;;6.18;4.88;;;;;;;10.66;100.00;95860.47;1025725;28;20050;-73
2023/05/20 00:31:22;;;;;;;3.20;2.90;;;;;;;10.69;100.00;95857.31;1024496;28;20240;-72
2023/05/20 00:31:53;;;;;;;8.15;3.95;;;;;;;10.68;100.00;95860.22;1021957;28;20063;-72
2023/05/20 00:32:24;;;;;;;5.47;3.55;;;;;;;10.68;100.00;95862.84;1025810;28;20035;-72
2023/05/20 00:32:55;;;;;;;3.88;3.42;;;;;;;10.67;100.00;95856.03;1019830;29;20027;-72
2023/05/20 00:33:25;;;;;;;4.88;3.72;;;;;;;10.66;100.00;95857.84;1021795;29;20085;-72
2023/05/20 00:33:55;;;;;;;3.60;3.22;;;;;;;10.65;100.00;95855.47;1025897;28;20058;-72
2023/05/20 00:34:26;;;;;;;4.65;3.33;;;;;;;10.65;100.00;95860.72;1018490;28;20500;-73
2023/05/20 00:34:57;;;;;;;3.50;3.05;;;;;;;10.64;100.00;95864.41;1025860;28;20576;-72
2023/05/20 00:35:28;;;;;;;5.95;3.63;;;;;;;10.61;100.00;95869.13;1025723;28;20033;-73
2023/05/20 00:35:58;;;;;;;4.20;3.47;;;;;;;10.62;100.00;95864.66;1021864;29;20263;-72
2023/05/20 00:36:30;;;;;;;4.18;3.70;;;;;;;10.61;100.00;95865.72;1021556;28;20074;-71
2023/05/20 00:37:00;;;;;;;4.03;3.60;;;;;;;10.62;100.00;95862.81;1021838;29;20032;-73
2023/05/20 00:37:31;;;;;;;4.50;3.70;;;;;;;10.62;100.00;95869.91;1025916;28;20441;-72
2023/05/20 00:38:01;;;;;;;5.82;3.90;;;;;;;10.64;100.00;95869.66;1032081;28;20121;-72
2023/05/20 00:38:32;;;;;;;4.47;3.83;;;;;;;10.65;100.00;95873.84;1021861;29;20058;-73
2023/05/20 00:39:03;;;;;;;4.88;3.65;;;;;;;10.64;100.00;95869.66;1025726;28;20046;-72
2023/05/20 00:39:33;;;;;;;5.03;3.65;;;;;;;10.61;100.00;95863.88;1025774;28;20507;-73
2023/05/20 00:40:04;;;;;;;4.72;3.90;;;;;;;10.61;100.00;95871.75;1022064;29;20102;-73
2023/05/20 00:40:35;;;;;;;4.28;3.70;;;;;;;10.60;100.00;95870.19;1021792;29;20038;-73
2023/05/20 00:41:05;;;;;;;3.80;3.40;;;;;;;10.60;100.00;95867.56;1017198;28;20126;-72
2023/05/20 00:41:36;;;;;;;6.18;3.47;;;;;;;10.61;100.00;95870.97;1021563;28;20062;-72
2023/05/20 00:42:06;;;;;;;3.85;3.40;;;;;;;10.60;100.00;95872.81;1017951;29;20545;-72
2023/05/20 00:42:37;;;;;;;7.15;3.53;;;;;;;10.61;100.00;95870.97;1021777;28;20062;-72
2023/05/20 00:43:08;;;;;;;3.88;3.30;;;;;;;10.61;100.00;95866.50;1023839;28;20043;-72
2023/05/20 00:43:38;;;;;;;4.30;3.50;;;;;;;10.59;100.00;95868.56;1025888;28;20019;-72
2023/05/20 00:44:09;;;;;;;4.85;3.33;;;;;;;10.60;100.00;95866.75;1029868;28;20675;-73
2023/05/20 00:44:39;;;;;;;5.40;3.85;;;;;;;10.60;100.00;95867.56;1025634;28;20034;-72
2023/05/20 00:45:10;;;;;;;4.25;3.53;;;;;;;10.50;100.00;95853.63;1021837;28;20516;-73
2023/05/20 00:45:40;;;;;;;4.63;3.58;;;;;;;10.59;100.00;95871.19;1025732;28;20468;-73
2023/05/20 00:46:11;;;;;;;4.93;3.85;;;;;;;10.60;100.00;95872.00;1025914;28;20027;-72
2023/05/20 00:46:42;;;;;;;6.68;3.78;;;;;;;10.60;100.00;95864.94;1025618;28;20026;-72
2023/05/20 00:47:16;;;;;;;4.80;3.75;;;;;;;10.59;100.00;95870.41;1029855;28;20530;-73
2023/05/20 00:47:47;;;;;;;4.70;3.33;;;;;;;10.58;100.00;95867.00;1025817;28;20037;-73
2023/05/20 00:48:17;;;;;;;4.70;3.35;;;;;;;10.59;100.00;95870.41;1021741;28;20335;-73
2023/05/20 00:48:48;;;;;;;5.95;3.85;;;;;;;10.58;100.00;95866.22;1029819;28;20525;-72
2023/05/20 00:49:18;;;;;;;5.07;3.88;;;;;;;10.54;100.00;95859.94;1025795;28;20642;-72
2023/05/20 00:49:49;;;;;;;4.65;3.65;;;;;;;10.58;100.00;95868.84;1029586;28;20122;-73
2023/05/20 00:50:20;;;;;;;4.28;3.50;;;;;;;10.56;100.00;95870.94;1029850;28;20435;-72
2023/05/20 00:50:50;;;;;;;4.50;3.60;;;;;;;10.52;100.00;95862.00;1021948;29;20354;-73
2023/05/20 00:51:21;;;;;;;3.85;3.30;;;;;;;10.55;100.00;95867.53;1025033;28;20027;-73
2023/05/20 00:51:51;;;;;;;5.38;4.10;;;;;;;10.55;100.00;95869.38;1018042;29;20024;-72
2023/05/20 00:52:22;;;;;;;4.50;3.40;;;;;;;10.56;100.00;95866.50;1029883;28;20113;-73
2023/05/20 00:52:54;;;;;;;3.97;3.53;;;;;;;10.57;100.00;95864.66;1021844;28;20051;-72
2023/05/20 00:53:24;;;;;;;4.50;3.65;;;;;;;10.57;100.00;95864.66;1033660;28;20025;-72
2023/05/20 00:53:55;;;;;;;5.97;4.30;;;;;;;10.54;100.00;95863.34;1033773;28;20272;-72
2023/05/20 00:54:26;;;;;;;5.85;3.45;;;;;;;10.54;100.00;95865.97;1017912;29;20453;-72
2023/05/20 00:54:57;;;;;;;5.32;3.65;;;;;;;10.52;100.00;95868.03;1031242;28;20696;-72
2023/05/20 00:55:27;;;;;;;4.60;3.70;;;;;;;10.53;100.00;95868.81;1025766;28;20019;-72
2023/05/20 00:55:58;;;;;;;5.22;3.92;;;;;;;10.51;100.00;95863.06;1029966;28;20085;-73
2023/05/20 00:56:28;;;;;;;4.28;3.60;;;;;;;10.53;100.00;95869.63;1021665;29;20015;-72
2023/05/20 00:56:59;;;;;;;4.95;3.75;;;;;;;10.53;100.00;95869.63;1017981;29;20059;-72
2023/05/20 00:57:30;;;;;;;8.70;3.75;;;;;;;10.50;100.00;95859.66;1017866;29;20485;-73
2023/05/20 00:58:00;;;;;;;5.18;3.92;;;;;;;10.53;100.00;95863.56;1013937;29;20672;-73
2023/05/20 00:58:31;;;;;;;5.55;3.58;;;;;;;10.54;100.00;95859.94;1024551;28;20081;-73
2023/05/20 00:59:01;;;;;;;6.60;3.60;;;;;;;10.54;100.00;95859.94;1021958;29;20024;-73
2023/05/20 00:59:35;;;;;;;3.88;3.45;;;;;;;10.53;100.00;95864.38;1025761;28;20066;-72
2023/05/20 01:00:07;;;;;;;4.65;3.83;;;;;;;10.53;100.00;95864.38;1021555;29;20511;-72
2023/05/20 01:00:37;;;;;;;8.80;4.03;;;;;;;10.51;100.00;95857.81;1025774;28;21007;-72
2023/05/20 01:01:08;;;;;;;7.88;4.43;;;;;;;10.48;100.00;95856.50;1025261;28;20313;-72
2023/05/20 01:01:38;;;;;;;5.28;3.75;;;;;;;10.51;100.00;95858.59;1029560;28;20103;-72
2023/05/20 01:02:09;;;;;;;9.18;3.83;;;;;;;10.47;100.00;95854.13;1025724;28;20732;-73
2023/05/20 01:02:39;;;;;;;4.47;3.72;;;;;;;10.49;100.00;95857.28;1021780;29;20035;-72
2023/05/20 01:03:10;;;;;;;6.78;4.03;;;;;;;10.48;100.00;95856.50;1017989;29;20028;-72
2023/05/20 01:03:41;;;;;;;3.92;3.55;;;;;;;10.48;100.00;95856.50;1019409;28;20095;-73
2023/05/20 01:04:11;;;;;;;6.95;3.45;;;;;;;10.48;100.00;95856.50;1029741;28;20166;-73
2023/05/20 01:04:45;;;;;;;5.18;3.78;;;;;;;10.49;100.00;95854.66;1025823;28;20173;-72
2023/05/20 01:05:16;;;;;;;4.72;3.90;;;;;;;10.48;100.00;95856.50;1024317;28;20397;-72
2023/05/20 01:05:47;;;;;;;4.78;3.83;;;;;;;10.47;100.00;95857.53;1021820;29;20278;-71
2023/05/20 01:06:17;;;;;;;5.45;4.00;;;;;;;10.45;100.00;95850.97;1029639;28;20149;-73
2023/05/20 01:06:48;;;;;;;5.10;3.97;;;;;;;10.45;100.00;95851.75;1025634;28;20852;-73
2023/05/20 01:07:19;;;;;;;6.18;4.03;;;;;;;10.44;100.00;95850.19;1017851;29;20136;-72
2023/05/20 01:07:50;;;;;;;5.47;3.88;;;;;;;10.42;100.00;95849.66;1017980;29;20330;-73
2023/05/20 01:08:23;;;;;;;6.40;3.60;;;;;;;10.43;100.00;95853.88;1029783;28;20022;-72
2023/05/20 01:08:54;;;;;;;4.53;3.70;;;;;;;10.43;100.00;95853.88;1025800;28;20034;-73
2023/05/20 01:09:24;;;;;;;4.97;3.55;;;;;;;10.42;100.00;95852.28;1021714;29;20262;-73
2023/05/20 01:09:55;;;;;;;4.70;3.53;;;;;;;10.43;100.00;95858.31;1021810;28;20078;-72
2023/05/20 01:10:25;;;;;;;4.30;3.83;;;;;;;10.41;100.00;95845.47;1021601;28;20143;-71
2023/05/20 01:11:00;;;;;;;4.32;3.53;;;;;;;10.41;100.00;95849.91;1025711;28;20446;-72
2023/05/20 01:11:34;;;;;;;4.32;3.80;;;;;;;10.41;100.00;95849.91;1025492;28;20470;-72
2023/05/20 01:12:11;;;;;;;7.13;3.70;;;;;;;10.41;100.00;95845.47;1021775;28;20271;-72
2023/05/20 01:12:43;;;;;;;4.97;4.05;;;;;;;10.42;100.00;95852.28;1025579;28;20258;-73
2023/05/20 01:13:19;;;;;;;5.10;3.90;;;;;;;10.42;100.00;95849.66;1021904;29;20807;-72
2023/05/20 01:13:53;;;;;;;6.22;4.20;;;;;;;10.42;100.00;95847.03;1032663;28;20292;-72
2023/05/20 01:14:25;;;;;;;5.75;3.90;;;;;;;10.43;100.00;95853.88;1021652;29;20347;-72
2023/05/20 01:15:00;;;;;;;4.47;3.90;;;;;;;10.43;100.00;95848.63;1021774;29;20434;-73
2023/05/20 01:15:31;;;;;;;4.63;3.40;;;;;;;10.42;100.00;95849.66;1021449;29;20274;-72
2023/05/20 01:16:02;;;;;;;5.30;3.40;;;;;;;10.44;100.00;95852.81;1021786;28;20251;-73
2023/05/20 01:16:33;;;;;;;6.80;3.67;;;;;;;10.42;100.00;95846.25;1025652;28;20297;-72
2023/05/20 01:17:08;;;;;;;6.68;3.92;;;;;;;10.42;100.00;95851.50;1026388;28;20755;-72
2023/05/20 01:17:51;;;;;;;4.95;3.90;;;;;;;10.39;100.00;95850.16;1028935;28;20038;-72
2023/05/20 01:18:24;;;;;;;7.25;3.80;;;;;;;10.40;100.00;95849.13;1026551;28;20258;-72
2023/05/20 01:18:56;;;;;;;7.50;4.45;;;;;;;10.37;100.00;95839.16;1026484;28;20274;-72
2023/05/20 01:19:32;;;;;;;6.40;3.83;;;;;;;10.37;100.00;95839.16;1026366;28;20294;-72
2023/05/20 01:20:04;;;;;;;4.97;3.80;;;;;;;10.40;100.00;95843.88;1026761;28;20330;-72
2023/05/20 01:20:36;;;;;;;4.72;3.83;;;;;;;10.38;100.00;95840.72;1026507;28;20254;-72
2023/05/20 01:21:07;;;;;;;6.40;4.13;;;;;;;10.37;100.00;95847.03;1029882;28;20312;-72
2023/05/20 01:21:37;;;;;;;5.45;3.95;;;;;;;10.35;100.00;95851.72;1030494;28;20281;-73
2023/05/20 01:22:11;;;;;;;5.65;3.92;;;;;;;10.36;100.00;95846.25;1026581;28;20269;-72
2023/05/20 01:22:54;;;;;;;5.50;3.72;;;;;;;10.37;100.00;95844.41;1032162;28;20062;-72
2023/05/20 01:23:31;;;;;;;4.68;3.80;;;;;;;10.35;100.00;95841.25;1022508;29;20294;-72
2023/05/20 01:24:04;;;;;;;4.18;3.60;;;;;;;10.35;100.00;95843.84;1014830;29;20834;-72
2023/05/20 01:24:35;;;;;;;4.28;3.65;;;;;;;10.35;100.00;95849.09;1022649;28;20375;-72
2023/05/20 01:25:05;;;;;;;5.05;4.00;;;;;;;10.36;100.00;95848.06;1018528;29;20737;-72
2023/05/20 01:25:36;;;;;;;6.30;3.92;;;;;;;10.36;100.00;95837.56;1030439;28;20018;-73
2023/05/20 01:26:07;;;;;;;5.28;3.92;;;;;;;10.37;100.00;95841.78;1020565;29;20059;-72
2023/05/20 01:26:37;;;;;;;5.30;3.95;;;;;;;10.37;100.00;95847.03;1026413;28;20023;-72
2023/05/20 01:27:12;;;;;;;6.53;4.10;;;;;;;10.40;100.00;95843.09;1026491;28;20089;-72
2023/05/20 01:27:42;;;;;;;6.68;3.47;;;;;;;10.39;100.00;95839.66;1031608;28;20419;-72
2023/05/20 01:28:16;;;;;;;5.15;3.90;;;;;;;10.41;100.00;95845.47;1026487;28;20437;-72
2023/05/20 01:28:47;;;;;;;5.78;4.28;;;;;;;10.42;100.00;95839.16;1030429;28;20060;-72
2023/05/20 01:29:17;;;;;;;6.05;4.28;;;;;;;10.43;100.00;95847.81;1025958;28;20268;-72
2023/05/20 01:29:49;;;;;;;5.22;4.25;;;;;;;10.44;100.00;95847.56;1022558;28;20480;-71
2023/05/20 01:30:20;;;;;;;6.28;4.20;;;;;;;10.43;100.00;95842.56;1026569;28;20504;-72
2023/05/20 01:30:52;;;;;;;5.18;4.40;;;;;;;10.45;100.00;95846.50;1022676;29;20357;-72
2023/05/20 01:31:23;;;;;;;5.60;4.05;;;;;;;10.47;100.00;95847.06;1025060;28;20015;-72
2023/05/20 01:31:53;;;;;;;4.00;3.60;;;;;;;10.49;100.00;95842.31;1026427;28;20304;-72
2023/05/20 01:32:27;;;;;;;4.63;3.60;;;;;;;10.48;100.00;95846.00;1026479;28;21051;-73
2023/05/20 01:33:00;;;;;;;5.07;4.07;;;;;;;10.49;100.00;95852.81;1026193;28;20135;-72
2023/05/20 01:33:31;;;;;;;9.18;3.85;;;;;;;10.51;100.00;95845.47;1018514;29;20702;-72
2023/05/20 01:34:01;;;;;;;5.05;3.85;;;;;;;10.53;100.00;95845.22;1022484;28;20266;-72
2023/05/20 01:34:33;;;;;;;4.32;3.92;;;;;;;10.55;100.00;95849.16;1019301;28;20131;-72
2023/05/20 01:35:04;;;;;;;6.35;4.38;;;;;;;10.54;100.00;95844.97;1022522;28;20015;-72
2023/05/20 01:35:35;;;;;;;5.03;3.85;;;;;;;10.56;100.00;95845.50;1030513;28;20269;-72
2023/05/20 01:36:06;;;;;;;6.85;4.15;;;;;;;10.57;100.00;95846.28;1022758;28;20030;-72
2023/05/20 01:36:36;;;;;;;4.15;3.67;;;;;;;10.60;100.00;95846.56;1030437;28;20073;-72
2023/05/20 01:37:07;;;;;;;4.65;3.63;;;;;;;10.60;100.00;95843.94;1022609;28;20310;-72
2023/05/20 01:37:39;;;;;;;5.57;3.75;;;;;;;10.62;100.00;95848.91;1026501;28;20043;-73
2023/05/20 01:38:09;;;;;;;6.28;4.25;;;;;;;10.62;100.00;95844.44;1027077;28;20225;-72
2023/05/20 01:38:40;;;;;;;4.57;3.65;;;;;;;10.66;100.00;95849.97;1018419;29;20274;-73
2023/05/20 01:39:11;;;;;;;6.43;4.40;;;;;;;10.66;100.00;95846.56;1018611;28;20603;-73
2023/05/20 01:39:41;;;;;;;6.03;3.72;;;;;;;10.64;100.00;95840.78;1027959;28;20023;-72
2023/05/20 01:40:13;;;;;;;5.68;4.10;;;;;;;10.69;100.00;95849.44;1030530;28;20266;-73
2023/05/20 01:40:45;;;;;;;4.72;3.65;;;;;;;10.69;100.00;95841.56;1030568;28;20057;-72
2023/05/20 01:41:15;;;;;;;4.03;3.42;;;;;;;10.70;100.00;95847.63;1029696;28;20264;-72
2023/05/20 01:41:46;;;;;;;4.28;3.58;;;;;;;10.72;100.00;95837.66;1034374;28;20293;-73
2023/05/20 01:42:16;;;;;;;5.20;3.67;;;;;;;10.73;100.00;95847.09;1026604;28;20053;-72
2023/05/20 01:42:51;;;;;;;5.38;3.47;;;;;;;10.74;100.00;95840.81;1026438;28;20555;-72
2023/05/20 01:43:22;;;;;;;6.30;4.30;;;;;;;10.73;100.00;95841.84;1022448;28;20028;-73
2023/05/20 01:43:52;;;;;;;6.35;3.78;;;;;;;10.77;100.00;95835.81;1014589;29;20801;-71
2023/05/20 01:44:23;;;;;;;4.75;3.75;;;;;;;10.78;100.00;95845.25;1030430;28;20018;-72
2023/05/20 01:44:53;;;;;;;7.53;3.80;;;;;;;10.75;100.00;95840.53;1021127;29;20047;-73
2023/05/20 01:45:24;;;;;;;4.30;3.90;;;;;;;10.75;100.00;95840.53;1018588;29;20067;-72
2023/05/20 01:45:54;;;;;;;5.05;3.78;;;;;;;10.76;100.00;95841.31;1026336;28;20031;-72
2023/05/20 01:46:25;;;;;;;3.97;3.58;;;;;;;10.77;100.00;95838.44;1022302;28;20025;-73
2023/05/20 01:46:55;;;;;;;5.10;3.88;;;;;;;10.78;100.00;95844.47;1018498;29;20024;-73
2023/05/20 01:47:26;;;;;;;5.20;3.83;;;;;;;10.78;100.00;95839.22;1018416;28;20019;-72
2023/05/20 01:47:56;;;;;;;7.38;3.90;;;;;;;10.77;100.00;95833.19;1026173;28;20042;-73
2023/05/20 01:48:27;;;;;;;7.30;3.90;;;;;;;10.80;100.00;95847.66;1022478;28;20293;-72
2023/05/20 01:48:57;;;;;;;4.28;3.80;;;;;;;10.79;100.00;95846.03;1022498;29;20194;-71
2023/05/20 01:49:28;;;;;;;5.03;3.80;;;;;;;10.78;100.00;95839.22;1026489;28;20489;-71
2023/05/20 01:49:58;;;;;;;4.82;3.70;;;;;;;10.84;100.00;95843.44;1030276;28;20030;-72
2023/05/20 01:50:29;;;;;;;4.60;3.50;;;;;;;10.85;100.00;95840.53;1026503;28;20069;-72
2023/05/20 01:50:59;;;;;;;6.93;3.90;;;;;;;10.84;100.00;95843.44;1025857;28;20094;-70
2023/05/20 01:51:32;;;;;;;7.32;3.60;;;;;;;10.85;100.00;95845.78;1019277;28;20074;-72
2023/05/20 01:52:03;;;;;;;5.80;4.15;;;;;;;10.83;100.00;95841.84;1026309;28;20089;-72
2023/05/20 01:52:33;;;;;;;4.05;3.65;;;;;;;10.85;100.00;95839.75;1018406;29;20283;-72
2023/05/20 01:53:07;;;;;;;5.05;3.80;;;;;;;10.84;100.00;95838.97;1014376;29;20252;-71
2023/05/20 01:53:37;;;;;;;5.10;3.85;;;;;;;10.88;100.00;95841.88;1026364;28;20057;-72
2023/05/20 01:54:08;;;;;;;4.15;3.70;;;;;;;10.89;100.00;95845.28;1026247;28;20763;-72
2023/05/20 01:54:38;;;;;;;4.05;3.53;;;;;;;10.87;100.00;95845.53;1026234;28;20031;-72
2023/05/20 01:55:09;;;;;;;5.10;3.55;;;;;;;10.88;100.00;95844.50;1022282;28;20031;-72
2023/05/20 01:55:39;;;;;;;5.97;3.65;;;;;;;10.90;100.00;95842.41;1030369;28;20078;-72
2023/05/20 01:56:10;;;;;;;6.07;4.30;;;;;;;10.86;100.00;95846.56;1026262;28;20142;-72
2023/05/20 01:56:40;;;;;;;4.53;3.55;;;;;;;10.85;100.00;95835.28;1018293;28;20373;-73
2023/05/20 01:57:11;;;;;;;6.80;3.90;;;;;;;10.86;100.00;95843.94;1026580;28;20039;-73
2023/05/20 01:57:41;;;;;;;5.35;3.90;;;;;;;10.87;100.00;95842.94;1026302;28;20145;-72
2023/05/20 01:58:12;;;;;;;4.45;3.80;;;;;;;10.84;100.00;95838.97;1022451;28;20055;-72
2023/05/20 01:58:42;;;;;;;5.40;3.80;;;;;;;10.84;100.00;95838.97;1018542;29;20492;-72
2023/05/20 01:59:13;;;;;;;4.10;3.47;;;;;;;10.88;100.00;95844.50;1022368;29;20149;-71
2023/05/20 01:59:43;;;;;;;4.32;3.92;;;;;;;10.87;100.00;95837.69;1022395;29;20125;-72
2023/05/20 02:00:14;;;;;;;4.80;3.58;;;;;;;10.88;100.00;95834.00;1030220;28;20879;-72
2023/05/20 02:00:44;;;;;;;5.10;3.80;;;;;;;10.87;100.00;95835.06;1022379;29;20317;-72
2023/05/20 02:01:15;;;;;;;4.22;3.45;;;;;;;10.86;100.00;95836.06;1021794;29;20058;-72
2023/05/20 02:01:45;;;;;;;4.57;3.90;;;;;;;10.84;100.00;95841.59;1026154;28;20030;-72
2023/05/20 02:02:16;;;;;;;4.63;3.33;;;;;;;10.79;100.00;95830.31;1030340;28;20157;-72
2023/05/20 02:02:47;;;;;;;5.82;3.80;;;;;;;10.84;100.00;95827.69;1030348;28;20044;-72
2023/05/20 02:03:17;;;;;;;5.07;3.70;;;;;;;10.84;100.00;95832.94;1026205;28;20134;-72
2023/05/20 02:03:48;;;;;;;4.65;3.65;;;;;;;10.84;100.00;95833.72;1022208;28;20433;-72
2023/05/20 02:04:18;;;;;;;7.10;3.53;;;;;;;10.88;100.00;95834.00;1022403;29;20058;-72
2023/05/20 02:04:50;;;;;;;6.20;3.55;;;;;;;10.87;100.00;95827.19;1022359;29;20126;-73
2023/05/20 02:05:20;;;;;;;6.30;3.78;;;;;;;10.85;100.00;95835.28;1029328;28;20030;-72
2023/05/20 02:05:51;;;;;;;4.78;3.70;;;;;;;10.84;100.00;95828.47;1018474;29;20284;-72
2023/05/20 02:06:21;;;;;;;4.40;3.65;;;;;;;10.86;100.00;95830.81;1022351;29;20046;-72
2023/05/20 02:06:52;;;;;;;4.97;3.78;;;;;;;10.85;100.00;95829.25;1022304;28;20063;-72
2023/05/20 02:07:22;;;;;;;6.53;4.13;;;;;;;10.88;100.00;95828.75;1022425;29;20168;-70
2023/05/20 02:07:53;;;;;;;4.32;3.55;;;;;;;10.87;100.00;95832.44;1030323;28;20833;-72
2023/05/20 02:08:23;;;;;;;5.63;4.18;;;;;;;10.84;100.00;95832.94;1034063;28;20120;-71
2023/05/20 02:08:54;;;;;;;4.18;3.58;;;;;;;10.84;100.00;95827.69;1026250;28;20263;-72
2023/05/20 02:09:24;;;;;;;4.57;3.47;;;;;;;10.79;100.00;95819.81;1022445;28;20627;-74
2023/05/20 02:09:55;;;;;;;5.32;3.83;;;;;;;10.84;100.00;95840.81;1034422;28;20068;-72
2023/05/20 02:10:25;;;;;;;4.68;3.80;;;;;;;10.84;100.00;95838.19;1033242;28;20041;-72
2023/05/20 02:10:56;;;;;;;4.72;3.85;;;;;;;10.84;100.00;95832.94;1026160;28;20410;-73
2023/05/20 02:11:26;;;;;;;6.78;3.80;;;;;;;10.84;100.00;95832.94;1029504;28;20115;-72
2023/05/20 02:11:57;;;;;;;5.88;4.15;;;;;;;10.86;100.00;95836.06;1023774;28;20162;-72
2023/05/20 02:12:27;;;;;;;5.80;3.80;;;;;;;10.84;100.00;95832.94;1014412;29;20024;-73
2023/05/20 02:12:58;;;;;;;5.18;3.92;;;;;;;10.88;100.00;95834.00;1014251;29;20039;-72
2023/05/20 02:13:28;;;;;;;5.35;4.05;;;;;;;10.88;100.00;95839.25;1018472;28;20062;-72
2023/05/20 02:13:59;;;;;;;4.43;3.45;;;;;;;10.84;100.00;95827.69;1022365;29;20465;-72
2023/05/20 02:14:30;;;;;;;4.53;4.07;;;;;;;10.86;100.00;95838.69;1026288;28;20117;-73
2023/05/20 02:15:00;;;;;;;4.72;3.67;;;;;;;10.84;100.00;95831.09;1030187;28;20058;-73
2023/05/20 02:15:31;;;;;;;5.40;4.00;;;;;;;10.83;100.00;95832.16;1019382;28;20279;-73
2023/05/20 02:16:01;;;;;;;5.40;3.97;;;;;;;10.85;100.00;95837.13;1022500;29;20069;-72
2023/05/20 02:16:32;;;;;;;6.45;3.90;;;;;;;10.84;100.00;95827.69;1026307;28;20116;-72
2023/05/20 02:17:02;;;;;;;6.43;4.10;;;;;;;10.83;100.00;95832.16;1026083;28;20324;-72
2023/05/20 02:17:33;;;;;;;5.82;4.03;;;;;;;10.83;100.00;95826.09;1023866;28;20015;-72
2023/05/20 02:18:07;;;;;;;6.32;3.85;;;;;;;10.83;100.00;95833.97;1026439;28;20050;-73
2023/05/20 02:18:37;;;;;;;5.20;4.10;;;;;;;10.84;100.00;95836.34;1034307;28;20092;-73
2023/05/20 02:19:11;;;;;;;4.72;3.85;;;;;;;10.84;100.00;95835.56;1026111;28;20775;-73
2023/05/20 02:19:45;;;;;;;5.40;3.85;;;;;;;10.81;100.00;95834.25;1026354;28;20046;-73
2023/05/20 02:20:16;;;;;;;4.80;3.83;;;;;;;10.85;100.00;95831.88;1026441;28;20691;-73
2023/05/20 02:20:47;;;;;;;4.00;3.33;;;;;;;10.86;100.00;95833.44;1022446;28;20422;-73
2023/05/20 02:21:17;;;;;;;6.43;3.80;;;;;;;10.89;100.00;95835.56;1029588;28;20201;-71
2023/05/20 02:21:48;;;;;;;6.97;4.05;;;;;;;10.89;100.00;95835.56;1027273;28;20113;-72
2023/05/20 02:22:19;;;;;;;6.15;3.45;;;;;;;10.90;100.00;95841.59;1029988;28;20639;-72
2023/05/20 02:22:49;;;;;;;4.95;4.05;;;;;;;10.88;100.00;95835.84;1026016;28;20534;-72
2023/05/20 02:23:20;;;;;;;4.35;3.83;;;;;;;10.85;100.00;95839.75;1027212;28;20468;-72
2023/05/20 02:23:50;;;;;;;5.63;3.78;;;;;;;10.85;100.00;95840.53;1031317;28;20572;-73
2023/05/20 02:24:21;;;;;;;4.45;3.67;;;;;;;10.82;100.00;95835.03;1017655;28;20792;-72